Airport View

Enter AWOS ICAO identifier for current METAR.

ex. KFNL

KNFE 212256Z AUTO 00000KT 10SM CLR 24/16 A3019 RMK AO2 SLP226 T02440161

21 Sep 2019 23:52

Other Area AWOS: KCPK - KNTU - KORF - KPVG

TAF KNTU 2115/2215 23008KT 9999 FEW250 QNH3023INS FM212000 18009KT 9999 FEW040 FEW250 QNH3023INS FM220200 22005KT 9999 FEW250 QNH3018INS FM221500 22008KT 9999 FEW250 QNH3018INS T25/2119Z T18/2210Z FN00204